createdAt,value
2018-04-24T00:00:36.527Z,6.90
2018-04-24T00:03:05.520Z,6.57
2018-04-24T00:05:34.002Z,7.27
2018-04-24T00:08:02.481Z,6.60
2018-04-24T00:10:31.016Z,7.27
2018-04-24T00:12:59.555Z,6.40
2018-04-24T00:15:28.029Z,6.17
2018-04-24T00:17:56.332Z,7.03
2018-04-24T00:20:24.792Z,6.27
2018-04-24T00:22:53.269Z,7.27
2018-04-24T00:25:21.965Z,6.90
2018-04-24T00:27:50.533Z,6.10
2018-04-24T00:30:18.850Z,6.17
2018-04-24T00:32:47.297Z,5.97
2018-04-24T00:35:15.782Z,6.20
2018-04-24T00:37:44.251Z,6.13
2018-04-24T00:40:12.735Z,5.50
2018-04-24T00:42:41.056Z,6.07
2018-04-24T00:45:09.496Z,5.53
2018-04-24T00:47:38.074Z,6.00
2018-04-24T00:50:06.554Z,6.00
2018-04-24T00:52:34.947Z,5.97
2018-04-24T00:55:03.415Z,5.93
2018-04-24T00:57:32.003Z,6.20
2018-04-24T01:00:00.484Z,7.10
2018-04-24T01:02:28.962Z,6.00
2018-04-24T01:04:58.058Z,6.40
2018-04-24T01:07:26.435Z,6.33
2018-04-24T01:09:54.914Z,5.80
2018-04-24T01:12:23.324Z,6.50
2018-04-24T01:14:51.725Z,7.10
2018-04-24T01:17:20.081Z,6.37
2018-04-24T01:19:48.643Z,6.57
2018-04-24T01:22:17.119Z,6.70
2018-04-24T01:24:45.597Z,7.40
2018-04-24T01:27:13.935Z,7.37
2018-04-24T01:29:43.178Z,6.43
2018-04-24T01:32:11.500Z,7.10
2018-04-24T01:34:39.931Z,6.87
2018-04-24T01:37:08.414Z,6.73
2018-04-24T01:39:36.763Z,5.80
2018-04-24T01:42:05.885Z,6.77
2018-04-24T01:44:34.465Z,6.63
2018-04-24T01:47:03.042Z,6.10
2018-04-24T01:49:31.441Z,6.73
2018-04-24T01:52:00.015Z,6.27
2018-04-24T01:54:28.389Z,6.23
2018-04-24T01:56:56.867Z,6.07
2018-04-24T01:59:25.250Z,6.00
2018-04-24T02:01:53.940Z,6.07
2018-04-24T02:04:22.414Z,6.27
2018-04-24T02:06:50.796Z,6.33
2018-04-24T02:09:19.116Z,5.47
2018-04-24T02:11:47.558Z,6.10
2018-04-24T02:14:16.034Z,5.70
2018-04-24T02:16:44.423Z,6.00
2018-04-24T02:19:12.757Z,6.00
2018-04-24T02:21:41.989Z,6.00
2018-04-24T02:24:10.468Z,5.47
2018-04-24T02:26:39.050Z,5.73
2018-04-24T02:29:07.372Z,5.50
2018-04-24T02:31:35.813Z,6.03
2018-04-24T02:34:04.293Z,6.00
2018-04-24T02:36:32.820Z,6.30
2018-04-24T02:39:01.359Z,5.43
2018-04-24T02:41:29.713Z,5.47
2018-04-24T02:43:58.140Z,5.63
2018-04-24T02:46:26.641Z,5.90
2018-04-24T02:48:55.993Z,5.40
2018-04-24T02:51:24.477Z,5.30
2018-04-24T02:53:52.959Z,6.20
2018-04-24T02:56:21.291Z,5.90
2018-04-24T02:58:49.752Z,6.27
2018-04-24T03:01:18.243Z,6.60
2018-04-24T03:03:47.569Z,6.23
2018-04-24T03:06:16.075Z,6.17
2018-04-24T03:08:44.503Z,5.50
2018-04-24T03:11:13.039Z,5.67
2018-04-24T03:13:42.132Z,5.80
2018-04-24T03:16:10.531Z,5.60
2018-04-24T03:18:38.991Z,6.03
2018-04-24T03:21:07.470Z,5.93
2018-04-24T03:23:35.953Z,5.93
2018-04-24T03:26:04.435Z,5.30
2018-04-24T03:28:32.918Z,5.33
2018-04-24T03:31:01.496Z,5.77
2018-04-24T03:33:30.129Z,5.40
2018-04-24T03:35:58.680Z,5.07
2018-04-24T03:38:27.121Z,5.90
2018-04-24T03:40:55.731Z,5.53
2018-04-24T03:43:24.129Z,6.50
2018-04-24T03:45:52.568Z,5.33
2018-04-24T03:48:21.070Z,5.83
2018-04-24T03:50:50.202Z,5.63
2018-04-24T03:53:18.665Z,6.27
2018-04-24T03:55:47.709Z,5.90
2018-04-24T03:58:16.123Z,6.47
2018-04-24T04:00:44.603Z,6.33
2018-04-24T04:03:13.026Z,5.97
2018-04-24T04:05:42.284Z,5.67
2018-04-24T04:08:10.758Z,5.70
2018-04-24T04:10:39.178Z,6.30
2018-04-24T04:13:07.770Z,7.10
2018-04-24T04:15:36.305Z,6.40
2018-04-24T04:18:16.662Z,5.30
2018-04-24T04:20:56.920Z,5.90
2018-04-24T04:23:37.177Z,6.30
2018-04-24T04:26:05.672Z,6.73
2018-04-24T04:28:34.139Z,5.80
2018-04-24T04:31:02.664Z,6.37
2018-04-24T04:33:30.993Z,5.83
2018-04-24T04:35:59.536Z,6.00
2018-04-24T04:38:28.632Z,6.80
2018-04-24T04:40:57.775Z,6.20
2018-04-24T04:43:26.179Z,7.20
2018-04-24T04:45:54.738Z,8.10
2018-04-24T04:48:23.224Z,7.37
2018-04-24T04:50:51.800Z,7.90
2018-04-24T04:53:20.283Z,6.63
2018-04-24T04:55:49.480Z,7.50
2018-04-24T04:58:18.879Z,6.70
2018-04-24T05:00:48.083Z,7.30
2018-04-24T05:03:16.632Z,7.70
2018-04-24T05:05:45.146Z,7.90
2018-04-24T05:08:13.532Z,8.00
2018-04-24T05:10:42.000Z,7.57
2018-04-24T05:13:10.357Z,7.27
2018-04-24T05:15:39.533Z,7.90
2018-04-24T05:18:08.056Z,9.67
2018-04-24T05:20:37.060Z,9.33
2018-04-24T05:23:05.473Z,7.37
2018-04-24T05:25:34.627Z,8.63
2018-04-24T05:28:03.110Z,7.70
2018-04-24T05:30:31.590Z,8.03
2018-04-24T05:33:00.035Z,8.60
2018-04-24T05:35:29.224Z,9.47
2018-04-24T05:37:58.463Z,7.27
2018-04-24T05:40:26.957Z,6.63
2018-04-24T05:42:55.316Z,8.97
2018-04-24T05:45:23.873Z,9.40
2018-04-24T05:50:17.006Z,8.40
2018-04-24T05:52:45.565Z,7.37
2018-04-24T05:55:14.048Z,10.33
2018-04-24T05:57:42.528Z,8.10
2018-04-24T06:00:10.952Z,7.97
2018-04-24T06:02:42.663Z,7.93
2018-04-24T06:05:11.116Z,7.90
2018-04-24T06:07:39.622Z,7.60
2018-04-24T06:10:07.998Z,7.60
2018-04-24T06:12:36.397Z,9.00
2018-04-24T06:15:04.975Z,7.90
2018-04-24T06:17:33.385Z,8.23
2018-04-24T06:20:01.823Z,8.53
2018-04-24T06:22:30.425Z,8.53
2018-04-24T06:24:58.801Z,7.70
2018-04-24T06:27:28.198Z,7.97
2018-04-24T06:29:56.556Z,7.80
2018-04-24T06:32:25.046Z,7.97
2018-04-24T06:34:53.525Z,7.43
2018-04-24T06:37:22.027Z,6.97
2018-04-24T06:39:50.384Z,7.37
2018-04-24T06:42:18.940Z,7.70
2018-04-24T06:44:47.341Z,7.33
2018-04-24T06:47:16.445Z,7.70
2018-04-24T06:49:45.535Z,7.93
2018-04-24T06:52:13.868Z,8.87
2018-04-24T06:54:43.109Z,7.27
2018-04-24T06:57:12.056Z,6.87
2018-04-24T06:59:41.304Z,7.53
2018-04-24T07:02:09.737Z,7.00
2018-04-24T07:04:39.110Z,6.60
2018-04-24T07:07:09.518Z,7.13
2018-04-24T07:09:37.905Z,7.97
2018-04-24T07:12:06.475Z,7.63
2018-04-24T07:14:34.953Z,7.37
2018-04-24T07:17:03.437Z,8.90
2018-04-24T07:19:31.917Z,8.47
2018-04-24T07:22:00.245Z,9.80
2018-04-24T07:24:28.773Z,8.43
2018-04-24T07:26:57.182Z,8.10
2018-04-24T07:29:26.145Z,9.20
2018-04-24T07:31:54.629Z,8.23
2018-04-24T07:34:23.869Z,8.83
2018-04-24T07:36:53.952Z,8.37
2018-04-24T07:39:22.427Z,7.37
2018-04-24T07:41:51.011Z,8.30
2018-04-24T07:44:19.902Z,7.83
2018-04-24T07:46:48.406Z,8.03
2018-04-24T07:49:16.746Z,7.73
2018-04-24T07:51:45.241Z,7.27
2018-04-24T07:54:19.491Z,8.30
2018-04-24T07:56:54.635Z,9.13
2018-04-24T07:59:23.361Z,7.17
2018-04-24T08:01:52.501Z,9.17
2018-04-24T08:04:20.974Z,8.00
2018-04-24T08:06:49.434Z,7.27
2018-04-24T08:09:18.278Z,7.97
2018-04-24T08:11:47.522Z,6.30
2018-04-24T08:14:16.473Z,7.17
2018-04-24T08:16:45.922Z,5.72
2018-04-24T08:19:14.327Z,5.63
2018-04-24T08:21:42.678Z,6.60
2018-04-24T08:24:11.044Z,5.93
2018-04-24T08:26:39.537Z,6.40
2018-04-24T08:29:08.839Z,6.53
2018-04-24T08:31:37.218Z,5.70
2018-04-24T08:34:05.700Z,6.50
2018-04-24T08:36:34.149Z,6.80
2018-04-24T08:39:03.613Z,7.15
2018-04-24T08:41:32.880Z,6.22
2018-04-24T08:44:01.261Z,6.40
2018-04-24T08:46:29.746Z,5.93
2018-04-24T08:48:58.259Z,6.28
2018-04-24T08:51:26.803Z,5.85
2018-04-24T08:53:55.284Z,6.25
2018-04-24T08:56:23.735Z,5.87
2018-04-24T08:58:52.182Z,5.78
2018-04-24T09:01:20.663Z,5.47
2018-04-24T09:03:49.107Z,6.35
2018-04-24T09:06:18.272Z,6.33
2018-04-24T09:08:47.413Z,6.37
2018-04-24T09:11:15.983Z,7.67
2018-04-24T09:13:44.466Z,6.87
2018-04-24T09:16:12.944Z,8.23
2018-04-24T09:18:41.274Z,7.03
2018-04-24T09:21:09.803Z,7.43
2018-04-24T09:23:38.185Z,7.93
2018-04-24T09:26:06.661Z,8.23
2018-04-24T09:28:35.139Z,7.83
2018-04-24T09:31:04.223Z,6.22
2018-04-24T09:33:33.470Z,7.25
2018-04-24T09:36:01.921Z,6.37
2018-04-24T09:38:30.404Z,7.00
2018-04-24T09:40:58.941Z,6.93
2018-04-24T09:43:28.385Z,7.50
2018-04-24T09:45:57.123Z,7.07
2018-04-24T09:48:26.934Z,7.60
2018-04-24T09:50:56.183Z,7.62
2018-04-24T09:53:25.033Z,7.00
2018-04-24T09:55:54.123Z,8.82
2018-04-24T09:58:23.303Z,8.68
2018-04-24T10:00:51.977Z,8.38
2018-04-24T10:03:20.303Z,9.65
2018-04-24T10:05:48.807Z,8.63
2018-04-24T10:08:17.291Z,7.35
2018-04-24T10:10:45.768Z,7.30
2018-04-24T10:13:14.178Z,8.07
2018-04-24T10:15:42.579Z,7.47
2018-04-24T10:18:11.928Z,7.10
2018-04-24T10:20:40.651Z,7.97
2018-04-24T10:23:09.095Z,7.95
2018-04-24T10:25:37.452Z,6.87
2018-04-24T10:28:06.056Z,8.25
2018-04-24T10:30:34.463Z,8.90
2018-04-24T10:33:02.769Z,9.05
2018-04-24T10:35:32.114Z,8.20
2018-04-24T10:38:00.495Z,7.47
2018-04-24T10:40:29.112Z,8.23
2018-04-24T10:42:57.554Z,7.47
2018-04-24T10:45:25.879Z,6.65
2018-04-24T10:47:54.421Z,7.53
2018-04-24T10:50:22.898Z,7.43
2018-04-24T10:52:51.287Z,7.20
2018-04-24T10:55:19.707Z,7.22
2018-04-24T10:57:48.342Z,7.30
2018-04-24T11:00:16.821Z,6.43
2018-04-24T11:02:45.097Z,6.50
2018-04-24T11:05:13.523Z,7.25
2018-04-24T11:07:41.959Z,6.70
2018-04-24T11:10:10.437Z,6.82
2018-04-24T11:12:38.864Z,6.78
2018-04-24T11:15:07.398Z,7.18
2018-04-24T11:17:36.036Z,7.00
2018-04-24T11:20:05.288Z,9.48
2018-04-24T11:22:33.867Z,7.05
2018-04-24T11:25:02.356Z,7.62
2018-04-24T11:27:30.835Z,7.05
2018-04-24T11:30:00.919Z,6.55
2018-04-24T11:32:31.301Z,6.72
2018-04-24T11:35:00.165Z,6.97
2018-04-24T11:37:30.462Z,6.55
2018-04-24T11:39:58.973Z,6.75
2018-04-24T11:42:27.449Z,7.30
2018-04-24T11:44:56.034Z,7.10
2018-04-24T11:47:24.441Z,6.57
2018-04-24T11:49:52.891Z,7.50
2018-04-24T11:52:21.296Z,8.48
2018-04-24T11:54:49.749Z,6.80
2018-04-24T11:57:18.229Z,7.50
2018-04-24T11:59:46.896Z,7.87
2018-04-24T12:02:15.339Z,7.97
2018-04-24T12:04:44.025Z,9.27
2018-04-24T12:07:12.463Z,8.85
2018-04-24T12:09:41.862Z,9.52
2018-04-24T12:12:10.271Z,9.35
2018-04-24T12:14:39.229Z,10.43
2018-04-24T12:17:07.648Z,10.63
2018-04-24T12:19:37.525Z,8.70
2018-04-24T12:22:05.920Z,8.15
2018-04-24T12:24:34.313Z,8.73
2018-04-24T12:27:02.866Z,7.62
2018-04-24T12:29:31.344Z,7.35
2018-04-24T12:31:59.729Z,7.50
2018-04-24T12:34:29.241Z,7.65
2018-04-24T12:36:58.020Z,6.97
2018-04-24T12:39:26.447Z,7.68
2018-04-24T12:41:55.598Z,6.82
2018-04-24T12:44:24.079Z,8.48
2018-04-24T12:46:56.361Z,8.18
2018-04-24T12:49:25.906Z,7.35
2018-04-24T12:51:58.090Z,8.82
2018-04-24T12:54:29.334Z,8.82
2018-04-24T12:59:37.025Z,9.25
2018-04-24T13:02:07.635Z,9.77
2018-04-24T13:04:36.431Z,10.05
2018-04-24T13:07:06.569Z,8.88
2018-04-24T13:09:36.506Z,10.13
2018-04-24T13:12:05.167Z,10.00
2018-04-24T13:14:36.353Z,11.25
2018-04-24T13:17:07.084Z,9.98
2018-04-24T13:19:36.776Z,10.43
2018-04-24T13:22:06.827Z,10.75
2018-04-24T13:24:36.679Z,10.90
2018-04-24T13:27:05.825Z,10.45
2018-04-24T13:29:36.630Z,10.13
2018-04-24T13:32:06.582Z,10.68
2018-04-24T13:34:37.852Z,11.00
2018-04-24T13:37:08.511Z,11.43
2018-04-24T13:39:37.892Z,10.98
2018-04-24T13:42:06.869Z,9.88
2018-04-24T13:44:37.485Z,9.90
2018-04-24T13:47:06.241Z,8.40
2018-04-24T13:49:35.435Z,7.25
2018-04-24T13:52:04.679Z,5.82
2018-04-24T13:54:34.596Z,6.62
2018-04-24T13:57:03.072Z,5.55
2018-04-24T13:59:31.546Z,5.47
2018-04-24T14:02:00.090Z,5.43
2018-04-24T14:04:29.439Z,4.60
2018-04-24T14:06:57.810Z,4.50
2018-04-24T14:09:27.331Z,4.87
2018-04-24T14:11:55.800Z,4.57
2018-04-24T14:14:24.281Z,5.43
2018-04-24T14:16:52.863Z,5.30
2018-04-24T14:19:21.341Z,4.87
2018-04-24T14:21:49.834Z,5.45
2018-04-24T14:24:18.969Z,5.65
2018-04-24T14:26:47.769Z,5.55
2018-04-24T14:29:17.215Z,5.95
2018-04-24T14:31:45.726Z,5.43
2018-04-24T14:34:14.270Z,5.70
2018-04-24T14:36:43.532Z,5.78
2018-04-24T14:39:12.772Z,6.10
2018-04-24T14:41:41.256Z,5.65
2018-04-24T14:44:09.742Z,6.40
2018-04-24T14:46:38.178Z,5.82
2018-04-24T14:49:07.510Z,5.68
2018-04-24T14:51:36.136Z,6.85
2018-04-24T14:54:05.359Z,6.65
2018-04-24T14:56:34.479Z,7.00
2018-04-24T14:59:03.019Z,6.82
2018-04-24T15:01:31.571Z,7.03
2018-04-24T15:04:00.038Z,5.90
2018-04-24T15:06:28.629Z,7.37
2018-04-24T15:08:57.209Z,7.47
2018-04-24T15:11:25.853Z,7.65
2018-04-24T15:13:54.429Z,7.90
2018-04-24T15:16:23.746Z,7.90
2018-04-24T15:18:52.261Z,7.62
2018-04-24T15:21:20.847Z,7.40
2018-04-24T15:23:50.561Z,8.70
2018-04-24T15:26:19.081Z,7.05
2018-04-24T15:28:48.329Z,6.85
2018-04-24T15:31:16.815Z,6.93
2018-04-24T15:33:45.394Z,6.78
2018-04-24T15:36:13.888Z,6.15
2018-04-24T15:38:43.234Z,6.60
2018-04-24T15:41:12.583Z,6.25
2018-04-24T15:43:40.990Z,6.30
2018-04-24T15:46:09.543Z,5.93
2018-04-24T15:48:38.160Z,5.97
2018-04-24T15:51:06.541Z,7.15
2018-04-24T15:53:35.085Z,6.18
2018-04-24T15:56:03.661Z,6.70
2018-04-24T15:58:32.148Z,6.22
2018-04-24T16:01:00.609Z,6.45
2018-04-24T16:03:29.112Z,6.55
2018-04-24T16:05:57.527Z,5.70
2018-04-24T16:08:25.969Z,6.35
2018-04-24T16:10:54.575Z,5.28
2018-04-24T16:13:22.988Z,7.00
2018-04-24T16:15:52.231Z,6.40
2018-04-24T16:18:20.666Z,5.80
2018-04-24T16:20:49.881Z,6.22
2018-04-24T16:23:18.701Z,6.32
2018-04-24T16:25:47.584Z,5.72
2018-04-24T16:28:16.488Z,5.85
2018-04-24T16:30:46.492Z,6.00
2018-04-24T16:33:15.076Z,6.07
2018-04-24T16:35:43.607Z,5.62
2018-04-24T16:38:12.155Z,6.55
2018-04-24T16:40:42.409Z,5.78
2018-04-24T16:43:11.663Z,6.43
2018-04-24T16:45:40.147Z,5.40
2018-04-24T16:48:08.519Z,5.97
2018-04-24T16:50:37.821Z,7.03
2018-04-24T16:53:06.227Z,5.97
2018-04-24T16:55:34.908Z,6.45
2018-04-24T16:58:03.428Z,7.22
2018-04-24T17:00:32.724Z,6.22
2018-04-24T17:03:01.103Z,7.07
2018-04-24T17:05:30.342Z,6.20
2018-04-24T17:07:58.830Z,6.90
2018-04-24T17:10:27.253Z,6.10
2018-04-24T17:12:56.460Z,6.17
2018-04-24T17:15:25.374Z,6.70
2018-04-24T17:17:53.976Z,6.17
2018-04-24T17:20:22.549Z,6.40
2018-04-24T17:22:51.062Z,5.97
2018-04-24T17:25:21.446Z,5.80
2018-04-24T17:27:51.028Z,6.63
2018-04-24T17:30:20.326Z,5.87
2018-04-24T17:32:50.090Z,6.20
2018-04-24T17:35:18.637Z,6.90
2018-04-24T17:37:47.527Z,7.17
2018-04-24T17:40:16.856Z,6.27
2018-04-24T17:42:46.269Z,7.53
2018-04-24T17:45:14.692Z,7.27
2018-04-24T17:47:43.967Z,7.93
2018-04-24T17:50:12.350Z,6.80
2018-04-24T17:52:41.116Z,6.57
2018-04-24T17:55:09.589Z,5.97
2018-04-24T17:57:38.482Z,7.13
2018-04-24T18:00:06.964Z,6.80
2018-04-24T18:02:36.168Z,6.90
2018-04-24T18:05:04.636Z,7.30
2018-04-24T18:07:33.088Z,7.37
2018-04-24T18:10:01.643Z,6.50
2018-04-24T18:12:30.017Z,6.60
2018-04-24T18:14:59.379Z,6.50
2018-04-24T18:17:27.852Z,7.13
2018-04-24T18:19:56.974Z,6.63
2018-04-24T18:22:25.710Z,6.90
2018-04-24T18:24:54.333Z,7.07
2018-04-24T18:27:22.853Z,7.17
2018-04-24T18:29:53.542Z,7.70
2018-04-24T18:32:22.095Z,7.37
2018-04-24T18:34:51.418Z,7.10
2018-04-24T18:37:21.483Z,8.23
2018-04-24T18:39:51.602Z,7.30
2018-04-24T18:42:19.994Z,7.03
2018-04-24T18:44:49.895Z,7.93
2018-04-24T18:47:20.519Z,8.03
2018-04-24T18:49:51.625Z,7.47
2018-04-24T18:52:22.034Z,7.27
2018-04-24T18:54:51.158Z,7.93
2018-04-24T18:57:20.117Z,7.40
2018-04-24T18:59:50.271Z,6.93
2018-04-24T19:02:18.754Z,7.50
2018-04-24T19:04:47.338Z,7.53
2018-04-24T19:07:16.128Z,8.03
2018-04-24T19:09:45.994Z,7.23
2018-04-24T19:12:14.609Z,7.37
2018-04-24T19:14:43.162Z,7.67
2018-04-24T19:17:11.715Z,7.83
2018-04-24T19:19:40.359Z,7.90
2018-04-24T19:22:10.413Z,7.17
2018-04-24T19:24:45.359Z,7.23
2018-04-24T19:27:14.615Z,7.57
2018-04-24T19:29:43.325Z,7.40
2018-04-24T19:32:17.624Z,8.00
2018-04-24T19:34:47.725Z,8.10
2018-04-24T19:37:16.295Z,8.00
2018-04-24T19:39:50.490Z,7.13
2018-04-24T19:42:19.840Z,7.57
2018-04-24T19:44:48.939Z,7.17
2018-04-24T19:47:17.624Z,7.40
2018-04-24T19:49:51.620Z,7.13
2018-04-24T19:52:20.329Z,6.83
2018-04-24T19:54:57.358Z,8.03
2018-04-24T19:57:25.895Z,7.63
2018-04-24T19:59:54.564Z,7.87
2018-04-24T20:02:23.050Z,7.27
2018-04-24T20:04:51.640Z,7.43
2018-04-24T20:07:23.692Z,7.40
2018-04-24T20:09:53.097Z,8.03
2018-04-24T20:12:22.912Z,7.53
2018-04-24T20:14:51.540Z,7.50
2018-04-24T20:17:20.190Z,7.43
2018-04-24T20:19:49.215Z,7.20
2018-04-24T20:22:17.924Z,7.53
2018-04-24T20:24:47.462Z,8.20
2018-04-24T20:27:16.306Z,7.67
2018-04-24T20:29:45.110Z,7.03
2018-04-24T20:32:13.759Z,7.20
2018-04-24T20:34:43.125Z,7.33
2018-04-24T20:37:11.842Z,6.47
2018-04-24T20:39:42.682Z,6.40
2018-04-24T20:42:11.897Z,6.47
2018-04-24T20:44:44.372Z,6.23
2018-04-24T20:47:14.034Z,6.40
2018-04-24T20:49:43.633Z,6.43
2018-04-24T20:52:12.456Z,6.60
2018-04-24T20:54:41.107Z,6.60
2018-04-24T20:57:11.056Z,6.23
2018-04-24T20:59:40.122Z,6.83
2018-04-24T21:02:08.706Z,6.40
2018-04-24T21:04:37.378Z,6.80
2018-04-24T21:07:06.495Z,6.53
2018-04-24T21:09:34.926Z,6.60
2018-04-24T21:12:04.078Z,6.20
2018-04-24T21:14:32.585Z,6.63
2018-04-24T21:17:01.884Z,6.50
2018-04-24T21:19:31.584Z,6.70
2018-04-24T21:22:02.276Z,6.00
2018-04-24T21:24:30.807Z,5.97
2018-04-24T21:27:00.829Z,5.90
2018-04-24T21:29:31.513Z,6.50
2018-04-24T21:32:01.797Z,6.07
2018-04-24T21:34:30.826Z,6.63
2018-04-24T21:36:59.309Z,5.97
2018-04-24T21:39:28.038Z,6.83
2018-04-24T21:41:57.392Z,6.57
2018-04-24T21:44:25.953Z,6.17
2018-04-24T21:46:55.191Z,6.37
2018-04-24T21:49:25.401Z,6.20
2018-04-24T21:51:54.161Z,6.37
2018-04-24T21:54:22.676Z,6.07
2018-04-24T21:56:51.277Z,6.67
2018-04-24T21:59:19.951Z,6.13
2018-04-24T22:01:49.242Z,5.80
2018-04-24T22:04:19.512Z,6.40
2018-04-24T22:06:48.273Z,5.70
2018-04-24T22:09:17.666Z,6.30
2018-04-24T22:11:47.727Z,6.47
2018-04-24T22:14:21.473Z,6.73
2018-04-24T22:16:50.063Z,6.53
2018-04-24T22:19:23.762Z,6.20
2018-04-24T22:21:54.279Z,6.47
2018-04-24T22:24:23.193Z,6.27
2018-04-24T22:26:54.565Z,6.60
2018-04-24T22:29:24.914Z,6.50
2018-04-24T22:31:54.765Z,6.67
2018-04-24T22:34:23.781Z,6.63
2018-04-24T22:36:52.735Z,6.83
2018-04-24T22:39:21.284Z,6.63
2018-04-24T22:41:50.539Z,6.37
2018-04-24T22:44:18.875Z,6.63
2018-04-24T22:46:48.113Z,6.57
2018-04-24T22:49:17.786Z,6.27
2018-04-24T22:51:47.167Z,6.77
2018-04-24T22:54:16.623Z,7.40
2018-04-24T22:56:45.053Z,7.87
2018-04-24T22:59:14.402Z,6.53
2018-04-24T23:01:42.805Z,7.03
2018-04-24T23:04:11.306Z,6.97
2018-04-24T23:06:39.799Z,6.37
2018-04-24T23:09:09.067Z,6.40
2018-04-24T23:11:49.445Z,6.53
2018-04-24T23:14:31.389Z,6.27
2018-04-24T23:17:11.561Z,6.97
2018-04-24T23:19:51.926Z,7.13
2018-04-24T23:22:21.973Z,6.70
2018-04-24T23:24:50.419Z,6.03
2018-04-24T23:27:18.897Z,6.30
2018-04-24T23:29:47.375Z,6.00
2018-04-24T23:32:16.618Z,6.73
2018-04-24T23:34:45.162Z,6.40
2018-04-24T23:37:13.640Z,6.27
2018-04-24T23:39:42.017Z,6.40
2018-04-24T23:42:10.495Z,7.00
2018-04-24T23:44:38.977Z,6.83
2018-04-24T23:47:07.522Z,6.90
2018-04-24T23:49:35.977Z,6.70
2018-04-24T23:52:04.526Z,6.57
2018-04-24T23:54:33.841Z,6.80
2018-04-24T23:57:02.412Z,6.17
2018-04-24T23:59:32.131Z,6.40
